createdAt,value
2022-10-06T00:00:54.211Z,84.86
2022-10-06T00:03:23.185Z,84.74
2022-10-06T00:05:50.950Z,84.58
2022-10-06T00:08:19.690Z,84.96
2022-10-06T00:10:47.401Z,84.88
2022-10-06T00:13:15.262Z,84.41
2022-10-06T00:15:43.032Z,84.41
2022-10-06T00:18:12.231Z,84.16
2022-10-06T00:20:39.985Z,84.38
2022-10-06T00:23:07.858Z,84.18
2022-10-06T00:25:35.620Z,84.22
2022-10-06T00:28:03.482Z,84.31
2022-10-06T00:30:31.671Z,84.04
2022-10-06T00:33:02.920Z,83.47
2022-10-06T00:35:34.307Z,83.46
2022-10-06T00:38:02.437Z,83.34
2022-10-06T00:40:30.629Z,83.59
2022-10-06T00:43:00.891Z,83.55
2022-10-06T00:45:33.755Z,83.33
2022-10-06T00:48:06.253Z,83.24
2022-10-06T00:50:36.836Z,83.20
2022-10-06T00:53:07.106Z,82.93
2022-10-06T00:55:35.152Z,83.01
2022-10-06T00:58:03.777Z,83.07
2022-10-06T01:00:31.709Z,83.19
2022-10-06T01:03:05.477Z,83.23
2022-10-06T01:05:41.648Z,83.48
2022-10-06T01:08:09.856Z,83.77
2022-10-06T01:10:37.592Z,83.85
2022-10-06T01:13:06.578Z,83.87
2022-10-06T01:15:35.022Z,83.86
2022-10-06T01:18:07.228Z,83.99
2022-10-06T01:20:38.435Z,84.01
2022-10-06T01:23:10.115Z,84.07
2022-10-06T01:25:38.642Z,84.01
2022-10-06T01:28:09.144Z,84.09
2022-10-06T01:30:41.610Z,84.10
2022-10-06T01:33:09.361Z,84.34
2022-10-06T01:35:37.218Z,84.21
2022-10-06T01:38:06.696Z,84.42
2022-10-06T01:40:35.829Z,84.38
2022-10-06T01:43:03.786Z,84.16
2022-10-06T01:45:31.539Z,83.77
2022-10-06T01:47:59.274Z,83.59
2022-10-06T01:50:28.289Z,83.62
2022-10-06T01:52:57.431Z,83.38
2022-10-06T01:55:27.175Z,83.39
2022-10-06T01:57:57.091Z,83.13
2022-10-06T02:00:25.441Z,83.25
2022-10-06T02:02:53.147Z,83.08
2022-10-06T02:05:20.856Z,83.10
2022-10-06T02:07:51.784Z,83.33
2022-10-06T02:10:19.615Z,83.30
2022-10-06T02:12:52.840Z,83.63
2022-10-06T02:15:22.910Z,83.72
2022-10-06T02:17:52.130Z,83.47
2022-10-06T02:20:19.902Z,83.57
2022-10-06T02:22:47.723Z,83.78
2022-10-06T02:25:15.560Z,83.90
2022-10-06T02:27:43.419Z,83.95
2022-10-06T02:30:15.382Z,83.83
2022-10-06T02:32:44.251Z,83.80
2022-10-06T02:35:13.736Z,83.73
2022-10-06T02:37:42.549Z,84.13
2022-10-06T02:40:13.041Z,83.97
2022-10-06T02:42:40.792Z,83.94
2022-10-06T02:45:09.921Z,84.17
2022-10-06T02:47:39.148Z,83.94
2022-10-06T02:50:08.619Z,84.33
2022-10-06T02:52:41.078Z,84.32
2022-10-06T02:55:10.396Z,84.07
2022-10-06T02:57:38.229Z,84.25
2022-10-06T03:00:08.564Z,84.25
2022-10-06T03:02:36.661Z,84.43
2022-10-06T03:05:07.723Z,84.40
2022-10-06T03:07:35.608Z,84.57
2022-10-06T03:10:03.631Z,84.04
2022-10-06T03:12:31.970Z,84.01
2022-10-06T03:14:59.801Z,83.97
2022-10-06T03:17:27.623Z,84.40
2022-10-06T03:19:58.007Z,84.12
2022-10-06T03:22:27.757Z,84.18
2022-10-06T03:24:57.369Z,84.30
2022-10-06T03:27:25.862Z,84.04
2022-10-06T03:29:57.253Z,84.52
2022-10-06T03:32:26.538Z,84.86
2022-10-06T03:34:54.725Z,84.90
2022-10-06T03:37:22.854Z,84.85
2022-10-06T03:39:52.777Z,84.77
2022-10-06T03:42:21.045Z,84.72
2022-10-06T03:44:49.031Z,85.18
2022-10-06T03:47:17.799Z,84.91
2022-10-06T03:49:46.952Z,85.31
2022-10-06T03:52:16.328Z,85.29
2022-10-06T03:54:44.070Z,85.37
2022-10-06T03:57:13.360Z,85.39
2022-10-06T03:59:41.112Z,85.64
2022-10-06T04:02:11.222Z,85.57
2022-10-06T04:04:39.452Z,85.55
2022-10-06T04:07:12.058Z,85.45
2022-10-06T04:09:40.659Z,85.33
2022-10-06T04:12:10.065Z,85.48
2022-10-06T04:14:40.916Z,85.22
2022-10-06T04:17:09.448Z,85.65
2022-10-06T04:19:40.105Z,85.48
2022-10-06T04:22:08.454Z,85.65
2022-10-06T04:24:36.450Z,85.46
2022-10-06T04:27:18.501Z,86.01
2022-10-06T04:29:54.157Z,85.71
2022-10-06T04:32:22.439Z,85.73
2022-10-06T04:34:50.291Z,86.00
2022-10-06T04:37:18.104Z,85.97
2022-10-06T04:39:46.304Z,85.85
2022-10-06T04:42:13.997Z,86.12
2022-10-06T04:44:41.764Z,86.30
2022-10-06T04:47:10.826Z,86.09
2022-10-06T04:49:38.601Z,86.40
2022-10-06T04:52:06.457Z,86.01
2022-10-06T04:54:36.937Z,86.03
2022-10-06T04:57:06.185Z,86.43
2022-10-06T04:59:51.449Z,86.33
2022-10-06T05:02:20.934Z,86.26
2022-10-06T05:04:52.477Z,86.34
2022-10-06T05:07:22.018Z,86.65
2022-10-06T05:09:49.822Z,86.42
2022-10-06T05:12:18.712Z,86.61
2022-10-06T05:14:46.942Z,86.91
2022-10-06T05:17:15.231Z,86.57
2022-10-06T05:19:44.712Z,86.59
2022-10-06T05:22:13.037Z,86.73
2022-10-06T05:24:41.169Z,86.78
2022-10-06T05:27:08.956Z,87.00
2022-10-06T05:29:36.935Z,86.95
2022-10-06T05:32:06.864Z,87.01
2022-10-06T05:34:35.757Z,86.68
2022-10-06T05:37:04.949Z,86.70
2022-10-06T05:39:32.689Z,86.77
2022-10-06T05:42:01.050Z,87.21
2022-10-06T05:44:28.742Z,87.29
2022-10-06T05:46:59.782Z,87.49
2022-10-06T05:49:27.665Z,87.76
2022-10-06T05:51:58.821Z,87.58
2022-10-06T05:54:30.457Z,88.00
2022-10-06T05:56:58.221Z,87.89
2022-10-06T05:59:26.235Z,87.76
2022-10-06T06:01:56.242Z,87.66
2022-10-06T06:04:44.019Z,88.02
2022-10-06T06:07:11.808Z,87.76
2022-10-06T06:09:43.036Z,87.57
2022-10-06T06:12:10.811Z,87.75
2022-10-06T06:15:06.174Z,87.52
2022-10-06T06:17:39.372Z,86.94
2022-10-06T06:20:08.656Z,86.65
2022-10-06T06:22:36.408Z,86.39
2022-10-06T06:25:08.729Z,85.94
2022-10-06T06:27:36.678Z,85.33
2022-10-06T06:30:10.152Z,85.35
2022-10-06T06:32:38.306Z,84.56
2022-10-06T06:35:07.823Z,84.28
2022-10-06T06:37:35.836Z,84.01
2022-10-06T06:40:03.658Z,83.84
2022-10-06T06:42:36.754Z,83.98
2022-10-06T06:45:19.537Z,83.84
2022-10-06T06:48:15.494Z,83.89
2022-10-06T06:50:45.707Z,83.79
2022-10-06T06:53:16.232Z,83.39
2022-10-06T06:55:51.031Z,82.33
2022-10-06T06:58:22.129Z,78.95
2022-10-06T07:00:50.904Z,73.78
2022-10-06T07:03:32.946Z,66.93
2022-10-06T07:06:09.353Z,61.18
2022-10-06T07:08:38.846Z,61.26
2022-10-06T07:11:15.228Z,64.91
2022-10-06T07:13:46.622Z,66.93
2022-10-06T07:16:34.363Z,67.71
2022-10-06T07:19:24.695Z,68.16
2022-10-06T07:22:11.568Z,63.58
2022-10-06T07:24:57.294Z,58.77
2022-10-06T07:27:25.443Z,59.13
2022-10-06T07:29:55.611Z,59.94
2022-10-06T07:32:25.236Z,60.97
2022-10-06T07:34:54.273Z,61.02
2022-10-06T07:37:22.437Z,60.26
2022-10-06T07:39:50.257Z,58.07
2022-10-06T07:42:19.240Z,52.74
2022-10-06T07:45:08.619Z,48.89
2022-10-06T07:47:40.800Z,45.36
2022-10-06T07:50:10.044Z,43.18
2022-10-06T07:52:39.308Z,41.49
2022-10-06T07:55:08.457Z,39.24
2022-10-06T07:57:46.108Z,39.43
2022-10-06T08:00:15.637Z,39.72
2022-10-06T08:02:44.777Z,37.93
2022-10-06T08:05:12.787Z,38.85
2022-10-06T08:07:40.671Z,37.31
2022-10-06T08:10:09.038Z,36.47
2022-10-06T08:12:39.995Z,37.13
2022-10-06T08:15:08.822Z,37.98
2022-10-06T08:17:37.395Z,37.16
2022-10-06T08:20:08.959Z,38.03
2022-10-06T08:22:38.802Z,38.77
2022-10-06T08:25:08.483Z,38.84
2022-10-06T08:27:37.988Z,39.05
2022-10-06T08:30:07.582Z,39.92
2022-10-06T08:32:35.446Z,40.28
2022-10-06T08:35:03.893Z,41.96
2022-10-06T08:37:33.029Z,43.92
2022-10-06T08:40:00.725Z,43.71
2022-10-06T08:42:35.015Z,44.82
2022-10-06T08:45:06.131Z,45.69
2022-10-06T08:47:37.125Z,47.99
2022-10-06T08:50:09.438Z,48.47
2022-10-06T08:52:48.048Z,48.81
2022-10-06T08:55:28.914Z,48.47
2022-10-06T09:00:38.719Z,50.09
2022-10-06T09:03:07.623Z,49.46
2022-10-06T09:05:37.061Z,48.68
2022-10-06T09:08:26.360Z,48.92
2022-10-06T09:11:08.760Z,48.36
2022-10-06T09:13:40.792Z,48.79
2022-10-06T09:16:11.564Z,48.17
2022-10-06T09:21:39.382Z,48.65
2022-10-06T09:24:14.916Z,47.38
2022-10-06T09:26:45.367Z,46.83
2022-10-06T09:29:13.995Z,47.44
2022-10-06T09:31:44.165Z,45.04
2022-10-06T09:34:22.585Z,45.69
2022-10-06T09:37:02.856Z,45.68
2022-10-06T09:39:36.611Z,45.14
2022-10-06T09:42:12.834Z,44.88
2022-10-06T09:44:53.109Z,45.53
2022-10-06T09:47:40.858Z,45.55
2022-10-06T09:50:23.791Z,44.96
2022-10-06T09:53:10.784Z,45.60
2022-10-06T09:55:47.182Z,47.31
2022-10-06T09:58:22.483Z,47.52
2022-10-06T10:00:54.755Z,47.18
2022-10-06T10:03:23.366Z,47.04
2022-10-06T10:05:54.836Z,47.46
2022-10-06T10:08:24.689Z,47.75
2022-10-06T10:11:27.481Z,48.69
2022-10-06T10:13:56.558Z,48.11
2022-10-06T10:16:26.695Z,48.70
2022-10-06T10:18:55.144Z,49.22
2022-10-06T10:21:25.867Z,48.71
2022-10-06T10:23:57.076Z,49.16
2022-10-06T10:26:39.245Z,49.01
2022-10-06T10:29:33.182Z,48.48
2022-10-06T10:32:12.163Z,48.47
2022-10-06T10:35:03.986Z,48.00
2022-10-06T10:37:38.384Z,46.82
2022-10-06T10:40:13.770Z,46.52
2022-10-06T10:42:48.490Z,45.53
2022-10-06T10:45:24.185Z,45.36
2022-10-06T10:47:51.990Z,45.44
2022-10-06T10:50:25.951Z,44.65
2022-10-06T10:52:59.005Z,44.56
2022-10-06T10:55:30.737Z,44.58
2022-10-06T10:58:05.735Z,43.15
2022-10-06T11:00:40.075Z,43.92
2022-10-06T11:03:11.135Z,45.07
2022-10-06T11:05:58.124Z,41.54
2022-10-06T11:08:31.774Z,41.64
2022-10-06T11:11:01.909Z,40.10
2022-10-06T11:13:38.282Z,42.02
2022-10-06T11:16:24.890Z,42.34
2022-10-06T11:19:15.766Z,43.42
2022-10-06T11:21:51.066Z,42.98
2022-10-06T11:24:32.028Z,42.74
2022-10-06T11:27:19.092Z,43.11
2022-10-06T11:29:59.040Z,41.46
2022-10-06T11:32:32.913Z,41.48
2022-10-06T11:35:00.873Z,40.16
2022-10-06T11:37:39.748Z,40.92
2022-10-06T11:40:26.444Z,39.07
2022-10-06T11:43:00.009Z,39.68
2022-10-06T11:45:35.613Z,40.18
2022-10-06T11:48:24.515Z,38.95
2022-10-06T11:50:55.409Z,39.25
2022-10-06T11:53:40.271Z,39.16
2022-10-06T11:56:44.632Z,38.95
2022-10-06T11:59:14.408Z,37.56
2022-10-06T12:01:54.416Z,37.30
2022-10-06T12:04:24.695Z,38.98
2022-10-06T12:07:00.752Z,38.12
2022-10-06T12:09:53.471Z,38.76
2022-10-06T12:13:05.775Z,39.55
2022-10-06T12:19:16.781Z,38.52
2022-10-06T12:21:51.441Z,39.41
2022-10-06T12:24:29.006Z,38.81
2022-10-06T12:27:10.912Z,38.18
2022-10-06T12:29:46.045Z,38.27
2022-10-06T12:32:30.502Z,38.43
2022-10-06T12:35:18.366Z,37.52
2022-10-06T12:37:53.006Z,37.57
2022-10-06T12:40:59.488Z,37.88
2022-10-06T12:43:35.686Z,37.01
2022-10-06T12:46:07.703Z,37.66
2022-10-06T12:48:42.163Z,37.42
2022-10-06T12:51:30.357Z,38.06
2022-10-06T12:54:09.025Z,37.57
2022-10-06T12:56:38.928Z,37.91
2022-10-06T12:59:20.810Z,38.56
2022-10-06T13:01:51.767Z,38.27
2022-10-06T13:04:35.178Z,37.73
2022-10-06T13:07:11.926Z,38.61
2022-10-06T13:09:39.723Z,37.64
2022-10-06T13:12:21.288Z,38.74
2022-10-06T13:14:49.253Z,38.64
2022-10-06T13:17:17.006Z,39.00
2022-10-06T13:19:45.029Z,39.80
2022-10-06T13:22:15.083Z,39.16
2022-10-06T13:24:42.862Z,38.36
2022-10-06T13:27:17.822Z,39.46
2022-10-06T13:29:45.569Z,40.73
2022-10-06T13:32:19.043Z,40.10
2022-10-06T13:34:46.969Z,38.87
2022-10-06T13:37:16.669Z,39.12
2022-10-06T13:39:44.377Z,39.80
2022-10-06T13:42:20.314Z,39.62
2022-10-06T13:44:57.388Z,38.73
2022-10-06T13:47:29.643Z,38.95
2022-10-06T13:50:02.607Z,39.68
2022-10-06T13:52:35.979Z,39.60
2022-10-06T13:55:06.190Z,39.13
2022-10-06T13:57:39.063Z,38.45
2022-10-06T14:00:23.126Z,38.20
2022-10-06T14:02:52.363Z,38.26
2022-10-06T14:05:26.924Z,37.63
2022-10-06T14:07:59.517Z,37.73
2022-10-06T14:10:31.945Z,37.61
2022-10-06T14:13:01.862Z,37.40
2022-10-06T14:15:31.866Z,37.78
2022-10-06T14:18:02.455Z,37.71
2022-10-06T14:20:41.604Z,38.38
2022-10-06T14:23:40.867Z,38.68
2022-10-06T14:26:11.079Z,38.16
2022-10-06T14:28:39.204Z,38.05
2022-10-06T14:31:12.004Z,38.81
2022-10-06T14:33:42.149Z,38.78
2022-10-06T14:36:17.109Z,39.24
2022-10-06T14:38:47.665Z,39.01
2022-10-06T14:41:19.042Z,39.53
2022-10-06T14:43:48.128Z,39.00
2022-10-06T14:46:16.245Z,39.69
2022-10-06T14:48:44.090Z,40.05
2022-10-06T14:51:11.886Z,39.50
2022-10-06T14:53:40.307Z,40.23
2022-10-06T14:56:11.403Z,39.40
2022-10-06T14:58:40.257Z,40.19
2022-10-06T15:01:09.304Z,39.98
2022-10-06T15:03:37.425Z,41.48
2022-10-06T15:06:24.705Z,41.57
2022-10-06T15:08:52.854Z,42.19
2022-10-06T15:11:23.345Z,42.36
2022-10-06T15:13:53.760Z,42.01
2022-10-06T15:16:23.101Z,42.45
2022-10-06T15:18:50.917Z,42.24
2022-10-06T15:21:19.616Z,41.92
2022-10-06T15:23:48.035Z,42.09
2022-10-06T15:26:33.690Z,41.84
2022-10-06T15:29:03.078Z,42.73
2022-10-06T15:31:34.126Z,41.93
2022-10-06T15:34:03.490Z,41.50
2022-10-06T15:36:33.674Z,42.34
2022-10-06T15:39:06.291Z,42.17
2022-10-06T15:41:34.819Z,42.50
2022-10-06T15:44:05.001Z,42.19
2022-10-06T15:46:35.171Z,42.08
2022-10-06T15:49:05.373Z,42.77
2022-10-06T15:51:37.152Z,42.10
2022-10-06T15:54:05.470Z,42.98
2022-10-06T15:56:33.806Z,42.91
2022-10-06T15:59:01.861Z,42.49
2022-10-06T16:01:40.779Z,43.52
2022-10-06T16:04:21.424Z,44.17
2022-10-06T16:06:55.338Z,45.25
2022-10-06T16:09:25.101Z,45.69
2022-10-06T16:11:53.854Z,45.91
2022-10-06T16:14:21.653Z,46.24
2022-10-06T16:16:51.370Z,47.06
2022-10-06T16:19:20.636Z,47.27
2022-10-06T16:21:49.511Z,47.65
2022-10-06T16:24:17.810Z,47.72
2022-10-06T16:26:47.041Z,48.23
2022-10-06T16:29:15.191Z,48.58
2022-10-06T16:31:43.557Z,48.14
2022-10-06T16:34:13.492Z,48.76
2022-10-06T16:36:41.895Z,49.16
2022-10-06T16:39:13.986Z,49.43
2022-10-06T16:41:42.132Z,49.82
2022-10-06T16:44:10.142Z,50.50
2022-10-06T16:46:38.023Z,50.64
2022-10-06T16:49:07.322Z,50.89
2022-10-06T16:51:38.209Z,51.11
2022-10-06T16:54:06.910Z,50.82
2022-10-06T16:56:36.633Z,53.38
2022-10-06T16:59:06.813Z,53.38
2022-10-06T17:01:37.101Z,54.65
2022-10-06T17:04:07.186Z,55.37
2022-10-06T17:06:39.081Z,55.27
2022-10-06T17:09:08.477Z,56.74
2022-10-06T17:11:37.370Z,57.55
2022-10-06T17:14:06.328Z,57.06
2022-10-06T17:16:36.535Z,58.36
2022-10-06T17:19:05.821Z,58.21
2022-10-06T17:21:57.461Z,58.59
2022-10-06T17:24:27.811Z,58.47
2022-10-06T17:26:56.219Z,58.44
2022-10-06T17:29:24.507Z,59.24
2022-10-06T17:31:58.980Z,59.16
2022-10-06T17:34:31.831Z,59.18
2022-10-06T17:37:03.361Z,59.60
2022-10-06T17:39:31.938Z,61.10
2022-10-06T17:41:59.734Z,61.30
2022-10-06T17:44:28.777Z,62.05
2022-10-06T17:46:58.299Z,61.51
2022-10-06T17:49:26.939Z,61.22
2022-10-06T17:51:55.884Z,60.81
2022-10-06T17:54:27.117Z,60.66
2022-10-06T17:56:56.408Z,62.43
2022-10-06T17:59:25.802Z,62.46
2022-10-06T18:01:56.286Z,62.54
2022-10-06T18:04:24.759Z,62.65
2022-10-06T18:06:54.179Z,62.33
2022-10-06T18:09:22.722Z,62.15
2022-10-06T18:11:55.799Z,62.22
2022-10-06T18:14:25.264Z,62.75
2022-10-06T18:16:56.456Z,62.56
2022-10-06T18:19:28.529Z,63.13
2022-10-06T18:21:58.139Z,63.54
2022-10-06T18:24:28.032Z,64.17
2022-10-06T18:26:59.799Z,64.67
2022-10-06T18:29:30.815Z,65.30
2022-10-06T18:32:16.043Z,64.65
2022-10-06T18:37:34.840Z,63.87
2022-10-06T18:40:05.813Z,64.32
2022-10-06T18:42:34.974Z,65.81
2022-10-06T18:45:20.432Z,66.58
2022-10-06T18:48:05.841Z,67.50
2022-10-06T18:50:35.182Z,67.81
2022-10-06T18:53:04.251Z,67.62
2022-10-06T18:55:32.218Z,68.14
2022-10-06T18:58:01.979Z,68.36
2022-10-06T19:00:31.156Z,68.04
2022-10-06T19:02:58.987Z,68.15
2022-10-06T19:05:26.908Z,68.51
2022-10-06T19:07:55.692Z,68.53
2022-10-06T19:10:23.434Z,69.27
2022-10-06T19:12:51.179Z,69.03
2022-10-06T19:15:21.446Z,68.39
2022-10-06T19:17:49.785Z,68.33
2022-10-06T19:20:18.386Z,67.98
2022-10-06T19:22:47.598Z,67.45
2022-10-06T19:25:18.605Z,67.70
2022-10-06T19:27:46.678Z,68.18
2022-10-06T19:30:14.540Z,68.60
2022-10-06T19:32:43.914Z,68.83
2022-10-06T19:35:12.286Z,69.55
2022-10-06T19:37:40.708Z,69.25
2022-10-06T19:40:11.188Z,68.90
2022-10-06T19:42:47.760Z,68.66
2022-10-06T19:45:16.408Z,68.93
2022-10-06T19:47:46.819Z,69.12
2022-10-06T19:50:15.388Z,69.50
2022-10-06T19:52:43.585Z,70.35
2022-10-06T19:55:11.388Z,71.21
2022-10-06T19:57:39.193Z,71.14
2022-10-06T20:00:08.796Z,71.07
2022-10-06T20:02:43.745Z,70.59
2022-10-06T20:05:13.918Z,71.12
2022-10-06T20:07:42.546Z,71.62
2022-10-06T20:10:11.749Z,72.43
2022-10-06T20:12:41.060Z,72.53
2022-10-06T20:15:10.806Z,72.24
2022-10-06T20:17:39.249Z,72.06
2022-10-06T20:20:07.897Z,72.43
2022-10-06T20:22:37.021Z,72.84
2022-10-06T20:25:07.038Z,73.16
2022-10-06T20:27:35.002Z,73.81
2022-10-06T20:30:02.809Z,74.44
2022-10-06T20:32:30.546Z,75.17
2022-10-06T20:34:58.944Z,74.84
2022-10-06T20:37:26.692Z,74.66
2022-10-06T20:40:13.525Z,74.88
2022-10-06T20:42:44.735Z,75.07
2022-10-06T20:45:12.488Z,75.07
2022-10-06T20:47:40.236Z,75.51
2022-10-06T20:50:08.989Z,75.26
2022-10-06T20:52:38.357Z,75.31
2022-10-06T20:55:08.888Z,75.35
2022-10-06T20:57:36.849Z,76.12
2022-10-06T21:00:05.332Z,76.08
2022-10-06T21:02:33.686Z,75.84
2022-10-06T21:05:02.128Z,75.72
2022-10-06T21:07:29.867Z,75.77
2022-10-06T21:09:57.560Z,76.47
2022-10-06T21:12:26.811Z,77.62
2022-10-06T21:14:56.822Z,77.68
2022-10-06T21:17:24.636Z,77.07
2022-10-06T21:19:52.548Z,77.32
2022-10-06T21:22:20.263Z,77.19
2022-10-06T21:24:47.974Z,76.77
2022-10-06T21:27:18.280Z,76.52
2022-10-06T21:29:47.648Z,76.67
2022-10-06T21:32:15.399Z,76.92
2022-10-06T21:34:43.152Z,76.60
2022-10-06T21:37:12.716Z,76.66
2022-10-06T21:39:40.871Z,76.90
2022-10-06T21:42:08.874Z,76.74
2022-10-06T21:44:36.575Z,77.10
2022-10-06T21:47:05.935Z,76.58
2022-10-06T21:49:33.744Z,76.76
2022-10-06T21:52:04.677Z,76.42
2022-10-06T21:54:32.560Z,76.54
2022-10-06T21:57:00.288Z,76.29
2022-10-06T21:59:28.030Z,76.56
2022-10-06T22:01:56.754Z,77.05
2022-10-06T22:04:26.017Z,77.51
2022-10-06T22:06:53.765Z,77.59
2022-10-06T22:09:21.926Z,77.66
2022-10-06T22:11:50.618Z,78.19
2022-10-06T22:14:20.344Z,78.09
2022-10-06T22:16:48.111Z,78.58
2022-10-06T22:19:17.768Z,78.62
2022-10-06T22:21:48.869Z,78.36
2022-10-06T22:24:20.531Z,78.34
2022-10-06T22:26:49.284Z,78.76
2022-10-06T22:29:18.738Z,79.21
2022-10-06T22:31:47.770Z,79.51
2022-10-06T22:34:17.769Z,79.75
2022-10-06T22:36:47.240Z,80.27
2022-10-06T22:39:14.987Z,80.36
2022-10-06T22:41:42.715Z,80.82
2022-10-06T22:44:10.459Z,80.57
2022-10-06T22:46:38.642Z,80.74
2022-10-06T22:49:06.922Z,81.57
2022-10-06T22:51:34.911Z,81.96
2022-10-06T22:54:04.259Z,81.89
2022-10-06T22:56:33.599Z,81.44
2022-10-06T22:59:01.533Z,81.29
2022-10-06T23:01:30.519Z,81.54
2022-10-06T23:03:58.857Z,81.60
2022-10-06T23:06:26.907Z,82.32
2022-10-06T23:08:54.645Z,83.34
2022-10-06T23:11:23.784Z,83.08
2022-10-06T23:13:53.009Z,82.84
2022-10-06T23:16:21.344Z,82.81
2022-10-06T23:18:49.530Z,82.49
2022-10-06T23:21:21.684Z,82.31
2022-10-06T23:23:51.595Z,82.52
2022-10-06T23:26:20.213Z,82.63
2022-10-06T23:28:53.063Z,82.70
2022-10-06T23:31:20.917Z,82.43
2022-10-06T23:33:49.105Z,82.31
2022-10-06T23:36:17.688Z,82.43
2022-10-06T23:38:45.651Z,82.03
2022-10-06T23:41:13.588Z,81.66
2022-10-06T23:43:41.378Z,81.88
2022-10-06T23:46:10.593Z,82.15
2022-10-06T23:48:38.441Z,81.92
2022-10-06T23:51:08.036Z,82.13
2022-10-06T23:53:36.239Z,81.75
2022-10-06T23:56:04.498Z,82.17
2022-10-06T23:58:32.234Z,82.20
